Time;durP1;ratioP1;P1;durP2;ratioP2;P2;SDS_P1;SDS_P2;PMS_P1;PMS_P2;Temp;Humidity;BMP_temperature;BMP_pressure;BME280_temperature;BME280_humidity;BME280_pressure;Samples;Min_cycle;Max_cycle;Signal;HPM_P1;HPM_P2
2022/08/12 00:43:16;;;;;;;2.08;0.63;;;17.50;97.10;;;;;;6147478;23;20028;-64
2022/08/12 00:48:28;;;;;;;0.90;0.80;;;17.50;96.90;;;;;;6146155;23;20020;-64
2022/08/12 00:50:55;;;;;;;1.45;0.80;;;17.50;96.90;;;;;;6147588;23;20502;-64
2022/08/12 00:53:22;;;;;;;1.42;1.02;;;17.50;96.80;;;;;;6119388;23;20080;-65
2022/08/12 00:55:50;;;;;;;2.13;0.77;;;17.50;96.70;;;;;;6147126;23;20036;-64
2022/08/12 00:58:20;;;;;;;2.08;0.70;;;17.60;97.10;;;;;;6145922;23;20093;-64
2022/08/12 01:00:48;;;;;;;0.77;0.77;;;17.60;97.00;;;;;;6146143;23;20005;-64
2022/08/12 01:03:17;;;;;;;4.32;0.82;;;17.50;96.60;;;;;;6145555;23;20005;-64
2022/08/12 01:11:31;;;;;;;0.68;0.68;;;17.50;97.00;;;;;;6145440;23;20028;-64
2022/08/12 01:13:59;;;;;;;0.80;0.57;;;17.40;97.10;;;;;;6144611;23;20428;-64
2022/08/12 01:16:25;;;;;;;3.35;0.82;;;17.40;97.00;;;;;;6145818;23;20097;-64
2022/08/12 01:18:53;;;;;;;0.98;0.65;;;17.40;97.40;;;;;;6117388;23;20438;-64
2022/08/12 01:21:38;;;;;;;1.10;0.70;;;17.40;97.20;;;;;;6146517;23;20084;-64
2022/08/12 01:24:37;;;;;;;1.00;0.80;;;17.30;97.10;;;;;;6146120;23;20002;-64
2022/08/12 01:27:06;;;;;;;1.02;0.70;;;17.30;97.30;;;;;;6147075;23;20395;-64
2022/08/12 01:29:35;;;;;;;1.30;0.88;;;17.30;97.20;;;;;;6145573;23;20012;-64
2022/08/12 01:32:07;;;;;;;0.80;0.80;;;17.30;97.20;;;;;;6146914;23;20017;-64
2022/08/12 01:34:35;;;;;;;1.30;0.93;;;17.30;97.30;;;;;;6143759;23;20462;-64
2022/08/12 01:37:02;;;;;;;0.60;0.60;;;17.20;97.20;;;;;;6146316;23;20005;-64
2022/08/12 01:39:37;;;;;;;1.15;0.80;;;17.20;97.30;;;;;;6145758;23;20222;-65
2022/08/12 01:42:07;;;;;;;2.60;0.70;;;17.10;97.50;;;;;;6147165;23;20331;-65
2022/08/12 01:44:34;;;;;;;4.03;0.93;;;17.10;97.40;;;;;;6117351;23;20458;-64
2022/08/12 01:47:18;;;;;;;1.13;0.80;;;17.10;97.50;;;;;;6146757;23;20451;-64
2022/08/12 01:50:16;;;;;;;0.75;0.70;;;17.10;97.50;;;;;;6146219;23;20435;-64
2022/08/12 01:52:51;;;;;;;0.68;0.65;;;17.10;97.60;;;;;;6145878;23;20089;-65
2022/08/12 01:55:21;;;;;;;0.77;0.60;;;17.10;97.40;;;;;;6144831;23;20498;-65
2022/08/12 01:58:01;;;;;;;0.68;0.65;;;17.10;97.60;;;;;;6120564;23;20014;-64
2022/08/12 02:00:43;;;;;;;1.52;0.82;;;17.10;97.50;;;;;;6144812;23;20032;-64
2022/08/12 02:13:08;;;;;;;0.88;0.80;;;16.90;97.90;;;;;;6088011;23;20040;-64
2022/08/12 02:15:57;;;;;;;0.73;0.73;;;16.90;98.40;;;;;;6144043;23;20009;-64
2022/08/12 02:18:53;;;;;;;0.95;0.80;;;16.80;98.40;;;;;;6144275;23;20005;-64
2022/08/12 02:21:23;;;;;;;0.70;0.70;;;16.80;98.00;;;;;;6144339;23;20002;-64
2022/08/12 02:23:50;;;;;;;4.22;0.73;;;16.80;98.00;;;;;;6113980;23;20101;-66
2022/08/12 02:26:17;;;;;;;1.45;1.00;;;16.80;98.10;;;;;;6143112;23;20010;-66
2022/08/12 02:28:44;;;;;;;1.90;0.80;;;16.90;98.00;;;;;;6143820;23;20017;-66
2022/08/12 02:31:10;;;;;;;0.93;0.60;;;16.80;98.20;;;;;;6143149;23;20009;-66
2022/08/12 02:33:36;;;;;;;1.02;0.60;;;16.80;98.20;;;;;;6143990;23;20006;-66
2022/08/12 02:36:03;;;;;;;0.70;0.70;;;16.70;98.30;;;;;;6143049;23;20403;-66
2022/08/12 02:38:30;;;;;;;0.80;0.80;;;16.70;98.20;;;;;;6143717;23;20002;-65
2022/08/12 02:40:57;;;;;;;1.70;0.80;;;16.70;98.20;;;;;;6142497;23;20013;-66
2022/08/12 02:43:39;;;;;;;0.80;0.80;;;16.60;98.30;;;;;;6143877;23;20002;-66
2022/08/12 02:46:09;;;;;;;1.83;0.90;;;16.60;98.30;;;;;;6145250;23;20036;-66
2022/08/12 02:48:44;;;;;;;1.00;0.60;;;16.60;98.30;;;;;;6145980;23;20002;-66
2022/08/12 02:51:12;;;;;;;1.08;0.70;;;16.60;98.40;;;;;;6145413;23;20018;-66
2022/08/12 02:53:39;;;;;;;1.63;1.02;;;16.60;98.50;;;;;;6145214;23;20081;-66
2022/08/12 02:56:05;;;;;;;0.90;0.90;;;16.50;98.50;;;;;;6145514;23;20015;-66
2022/08/12 02:58:34;;;;;;;1.98;0.70;;;16.50;98.50;;;;;;6139829;23;20013;-66
2022/08/12 03:01:01;;;;;;;4.68;0.88;;;16.50;98.40;;;;;;6118422;23;20005;-66
2022/08/12 03:03:32;;;;;;;0.77;0.70;;;16.50;98.70;;;;;;6146488;23;20422;-66
2022/08/12 03:06:02;;;;;;;1.45;0.80;;;16.50;98.60;;;;;;6146474;23;20002;-67
2022/08/12 03:08:33;;;;;;;4.32;0.80;;;16.60;98.30;;;;;;6145233;23;20298;-66
2022/08/12 03:11:28;;;;;;;0.90;0.90;;;16.60;98.40;;;;;;6144918;23;20009;-66
2022/08/12 03:13:59;;;;;;;0.63;0.60;;;16.60;98.70;;;;;;6136858;23;20025;-66
2022/08/12 03:16:28;;;;;;;9.18;1.33;;;16.50;98.60;;;;;;6145578;23;20002;-66
2022/08/12 03:18:55;;;;;;;3.70;0.85;;;16.50;98.80;;;;;;6145586;23;20005;-65
2022/08/12 03:21:20;;;;;;;4.05;0.70;;;16.50;98.70;;;;;;6145719;23;20089;-66
2022/08/12 03:23:47;;;;;;;0.80;0.80;;;16.50;98.80;;;;;;6146779;23;20505;-66
2022/08/12 03:26:13;;;;;;;1.90;0.65;;;16.50;98.90;;;;;;6145202;23;20367;-66
2022/08/12 03:28:49;;;;;;;1.60;0.75;;;16.40;99.00;;;;;;6145247;23;20002;-66
2022/08/12 03:31:35;;;;;;;1.08;0.90;;;16.40;99.00;;;;;;6144214;23;20020;-66
2022/08/12 03:34:11;;;;;;;1.67;0.70;;;16.30;99.00;;;;;;6143621;23;20010;-66
2022/08/12 03:36:39;;;;;;;0.70;0.70;;;16.30;99.20;;;;;;6145786;23;20017;-66
2022/08/12 03:41:56;;;;;;;2.22;0.80;;;16.30;99.20;;;;;;6145747;23;20005;-66
2022/08/12 04:01:29;;;;;;;1.20;1.10;;;16.40;99.40;;;;;;6146053;23;20037;-65
2022/08/12 04:03:56;;;;;;;1.33;1.23;;;16.40;99.20;;;;;;6145979;23;20005;-65
2022/08/12 04:06:27;;;;;;;1.27;1.08;;;16.40;99.20;;;;;;6145215;23;20002;-66
2022/08/12 04:08:58;;;;;;;1.42;1.25;;;16.50;99.20;;;;;;6147086;23;20028;-66
2022/08/12 04:14:12;;;;;;;2.63;1.15;;;16.50;99.40;;;;;;6146805;23;20031;-66
2022/08/12 04:16:38;;;;;;;2.08;1.63;;;16.40;99.60;;;;;;6147360;23;20077;-66
2022/08/12 04:19:05;;;;;;;1.42;1.08;;;16.40;99.60;;;;;;6148987;23;20092;-66
2022/08/12 04:21:32;;;;;;;3.85;1.50;;;16.40;99.60;;;;;;6145880;23;20060;-66
2022/08/12 04:23:58;;;;;;;6.03;1.30;;;16.40;99.70;;;;;;6144539;23;20032;-66
2022/08/12 04:26:26;;;;;;;4.70;1.17;;;16.40;99.90;;;;;;6146478;23;20527;-66
2022/08/12 04:28:53;;;;;;;1.52;1.02;;;16.40;99.90;;;;;;6148336;23;20031;-66
2022/08/12 04:31:19;;;;;;;0.80;0.80;;;16.40;99.90;;;;;;6146410;23;20021;-66
2022/08/12 04:33:45;;;;;;;4.47;1.05;;;16.40;99.90;;;;;;6147207;23;20081;-66
2022/08/12 04:36:11;;;;;;;2.25;1.08;;;16.40;99.90;;;;;;6146068;23;20618;-66
2022/08/12 04:38:37;;;;;;;1.67;1.23;;;16.50;99.90;;;;;;6147906;23;20001;-66
2022/08/12 04:41:04;;;;;;;2.65;0.68;;;16.50;99.90;;;;;;6146757;23;20002;-66
2022/08/12 04:43:30;;;;;;;1.08;0.80;;;16.60;99.90;;;;;;6146507;23;20012;-66
2022/08/12 04:45:55;;;;;;;2.40;1.00;;;16.70;99.90;;;;;;6145536;23;20009;-66
2022/08/12 04:48:21;;;;;;;1.40;0.95;;;16.80;99.90;;;;;;6147886;23;20006;-66
2022/08/12 04:50:47;;;;;;;3.58;1.15;;;16.90;99.90;;;;;;6147350;23;20009;-66
2022/08/12 04:53:13;;;;;;;2.15;1.00;;;17.00;99.90;;;;;;6146860;23;20493;-65
2022/08/12 04:55:41;;;;;;;3.92;0.90;;;17.10;99.90;;;;;;6147314;23;20037;-66
2022/08/12 04:58:07;;;;;;;9.27;1.55;;;17.20;99.90;;;;;;6147609;23;20341;-66
2022/08/12 05:00:33;;;;;;;0.95;0.80;;;17.30;99.70;;;;;;6145742;23;20002;-66
2022/08/12 05:02:59;;;;;;;6.70;1.10;;;17.50;99.60;;;;;;6148255;23;20005;-66
2022/08/12 05:05:24;;;;;;;1.08;0.95;;;17.60;99.70;;;;;;6146210;23;20363;-65
2022/08/12 05:07:51;;;;;;;0.93;0.88;;;17.70;99.40;;;;;;6148407;23;20014;-66
2022/08/12 05:10:18;;;;;;;2.67;0.98;;;17.90;99.00;;;;;;6119535;23;20335;-66
2022/08/12 05:12:52;;;;;;;2.65;0.90;;;17.90;98.60;;;;;;6121301;23;20713;-66
2022/08/12 05:15:18;;;;;;;4.82;0.63;;;18.10;98.80;;;;;;6146679;23;20006;-66
2022/08/12 05:17:44;;;;;;;1.10;0.82;;;18.20;98.20;;;;;;6145888;23;20006;-66
2022/08/12 05:20:14;;;;;;;0.93;0.70;;;18.30;97.90;;;;;;6147711;23;20009;-66
2022/08/12 05:22:42;;;;;;;1.58;0.60;;;18.40;97.90;;;;;;6148038;23;20008;-66
2022/08/12 05:25:08;;;;;;;0.77;0.77;;;18.60;97.70;;;;;;6145723;23;20006;-66
2022/08/12 05:27:33;;;;;;;0.80;0.80;;;18.70;97.40;;;;;;6122224;23;20088;-66
2022/08/12 05:29:59;;;;;;;2.40;1.00;;;18.90;97.20;;;;;;6146266;23;20089;-66
2022/08/12 05:32:27;;;;;;;1.05;0.95;;;19.10;97.60;;;;;;6147755;23;20368;-66
2022/08/12 05:34:53;;;;;;;1.45;1.08;;;19.10;96.60;;;;;;6146086;23;20012;-64
2022/08/12 05:37:21;;;;;;;2.83;0.50;;;19.20;96.80;;;;;;6147712;23;19997;-64
2022/08/12 05:39:47;;;;;;;1.88;0.70;;;19.40;96.10;;;;;;6147225;23;20084;-65
2022/08/12 05:42:12;;;;;;;1.73;0.73;;;19.60;95.80;;;;;;6147807;23;20045;-64
2022/08/12 05:44:38;;;;;;;5.22;1.00;;;19.70;95.30;;;;;;6147003;23;20019;-65
2022/08/12 05:47:05;;;;;;;1.90;0.90;;;19.70;95.60;;;;;;6146949;23;20506;-65
2022/08/12 05:49:33;;;;;;;1.30;1.05;;;19.80;95.40;;;;;;6143650;23;20002;-65
2022/08/12 05:52:00;;;;;;;0.98;0.75;;;19.90;95.00;;;;;;6146738;23;20068;-65
2022/08/12 05:54:26;;;;;;;0.70;0.65;;;20.00;94.50;;;;;;6145716;23;20013;-64
2022/08/12 05:56:52;;;;;;;0.80;0.80;;;20.10;94.50;;;;;;6146897;23;20013;-65
2022/08/12 05:59:18;;;;;;;1.02;0.95;;;20.20;94.70;;;;;;6146216;23;20123;-65
2022/08/12 06:01:44;;;;;;;0.70;0.70;;;20.30;94.70;;;;;;6144308;23;20566;-64
2022/08/12 06:04:10;;;;;;;1.80;0.77;;;20.30;94.50;;;;;;6143922;23;20041;-65
2022/08/12 06:06:40;;;;;;;0.95;0.90;;;20.40;95.10;;;;;;6142304;23;20707;-64
2022/08/12 06:09:09;;;;;;;1.55;1.10;;;20.50;94.90;;;;;;6144194;23;20012;-65
2022/08/12 06:11:36;;;;;;;0.85;0.60;;;20.60;94.50;;;;;;6117466;23;20021;-64
2022/08/12 06:14:02;;;;;;;0.73;0.73;;;20.70;93.50;;;;;;6143813;23;20022;-64
2022/08/12 06:16:27;;;;;;;0.65;0.65;;;20.70;93.80;;;;;;6142844;23;20597;-65
2022/08/12 06:18:53;;;;;;;3.90;1.20;;;20.80;93.90;;;;;;6141939;23;20015;-64
2022/08/12 06:21:22;;;;;;;2.22;0.95;;;20.90;93.20;;;;;;6142508;23;20486;-65
2022/08/12 06:23:49;;;;;;;1.08;0.98;;;20.90;93.00;;;;;;6145588;23;20029;-65
2022/08/12 06:26:15;;;;;;;1.10;0.90;;;20.90;92.80;;;;;;6143043;23;20032;-65
2022/08/12 06:28:47;;;;;;;2.05;0.95;;;21.00;93.10;;;;;;6142849;23;20045;-65
2022/08/12 06:31:16;;;;;;;8.75;1.13;;;21.00;92.20;;;;;;6144375;23;20020;-65
2022/08/12 06:33:44;;;;;;;1.40;1.00;;;20.90;93.10;;;;;;6146915;23;20032;-64
2022/08/12 06:36:12;;;;;;;0.70;0.70;;;20.90;92.70;;;;;;6145591;23;20502;-65
2022/08/12 06:38:39;;;;;;;2.15;1.05;;;21.00;92.80;;;;;;6145780;23;20443;-65
2022/08/12 06:43:51;;;;;;;2.17;0.70;;;21.10;92.60;;;;;;6144254;23;20386;-65
2022/08/12 06:46:18;;;;;;;1.52;0.85;;;21.20;92.40;;;;;;6145273;23;20017;-65
2022/08/12 06:48:44;;;;;;;0.95;0.90;;;21.30;92.20;;;;;;6145543;23;20005;-65
2022/08/12 06:51:10;;;;;;;1.52;0.90;;;21.30;92.60;;;;;;6143540;23;20835;-65
2022/08/12 06:53:36;;;;;;;3.05;0.80;;;21.30;92.10;;;;;;6145242;23;20567;-65
2022/08/12 06:56:02;;;;;;;0.93;0.93;;;21.30;92.10;;;;;;6120308;23;20101;-71
2022/08/12 06:58:30;;;;;;;0.80;0.80;;;21.50;92.30;;;;;;6143372;23;20442;-71
2022/08/12 07:00:57;;;;;;;0.77;0.77;;;21.60;92.00;;;;;;6119605;23;20184;-70
2022/08/12 07:03:27;;;;;;;2.20;1.25;;;21.90;91.20;;;;;;6144789;23;19997;-71
2022/08/12 07:05:55;;;;;;;0.70;0.70;;;22.00;91.30;;;;;;6145997;23;20013;-71
2022/08/12 07:08:21;;;;;;;4.85;1.10;;;22.10;91.00;;;;;;6146323;23;20089;-71
2022/08/12 07:10:58;;;;;;;2.50;0.80;;;22.30;91.40;;;;;;6145929;23;20520;-71
2022/08/12 07:13:45;;;;;;;1.10;0.90;;;22.40;91.10;;;;;;6145429;23;20073;-71
2022/08/12 07:16:14;;;;;;;3.60;1.02;;;22.50;89.60;;;;;;6119533;23;20018;-71
2022/08/12 07:18:41;;;;;;;4.40;1.00;;;22.40;90.80;;;;;;6146145;23;20005;-71
2022/08/12 07:21:08;;;;;;;0.93;0.90;;;22.50;90.70;;;;;;6146308;23;20079;-71
2022/08/12 07:23:35;;;;;;;0.80;0.80;;;22.50;90.90;;;;;;6144362;23;20005;-72
2022/08/12 07:26:04;;;;;;;0.95;0.80;;;22.80;90.80;;;;;;6144070;23;20010;-71
2022/08/12 07:28:34;;;;;;;1.17;0.70;;;23.00;89.90;;;;;;6143068;23;20006;-71
2022/08/12 07:31:03;;;;;;;1.33;0.82;;;23.00;89.00;;;;;;6118222;23;20018;-71
2022/08/12 07:33:29;;;;;;;2.67;0.90;;;23.10;88.70;;;;;;6143471;23;20009;-71
2022/08/12 07:35:57;;;;;;;0.85;0.80;;;23.00;88.00;;;;;;6145482;23;20427;-71
2022/08/12 07:38:33;;;;;;;2.05;0.80;;;23.00;89.60;;;;;;6144998;23;20012;-71
2022/08/12 07:41:05;;;;;;;2.05;0.90;;;23.20;88.70;;;;;;6145093;23;20006;-71
2022/08/12 07:43:34;;;;;;;0.80;0.77;;;23.40;88.20;;;;;;6144868;23;20012;-72
2022/08/12 07:46:03;;;;;;;0.90;0.90;;;23.50;86.70;;;;;;6144564;23;20444;-71
2022/08/12 07:48:38;;;;;;;1.65;0.90;;;23.50;86.20;;;;;;6146705;23;20009;-71
2022/08/12 07:51:05;;;;;;;0.80;0.80;;;23.30;86.80;;;;;;6144400;23;20371;-71
2022/08/12 07:53:31;;;;;;;4.50;1.15;;;23.30;88.80;;;;;;6117401;23;20017;-71
2022/08/12 07:55:57;;;;;;;3.22;1.25;;;23.40;88.90;;;;;;6146083;23;20431;-71
2022/08/12 07:58:25;;;;;;;7.07;0.93;;;23.40;88.00;;;;;;6143784;23;20338;-71
2022/08/12 08:00:53;;;;;;;1.65;0.80;;;23.40;87.60;;;;;;6144695;23;20013;-71
2022/08/12 08:03:19;;;;;;;4.53;0.88;;;23.40;87.40;;;;;;6143635;23;20010;-71
2022/08/12 08:05:45;;;;;;;1.33;0.77;;;23.40;87.70;;;;;;6146020;23;20012;-71
2022/08/12 08:08:20;;;;;;;1.48;1.05;;;23.50;87.40;;;;;;6142989;23;20014;-71
2022/08/12 08:10:47;;;;;;;5.30;1.08;;;23.50;88.50;;;;;;6143504;23;20692;-72
2022/08/12 08:13:14;;;;;;;2.47;1.00;;;23.60;87.60;;;;;;6142781;23;20028;-73
2022/08/12 08:15:40;;;;;;;1.98;0.90;;;23.50;87.10;;;;;;6119894;23;20022;-72
2022/08/12 08:18:09;;;;;;;0.75;0.75;;;23.50;87.10;;;;;;6118949;23;20009;-72
2022/08/12 08:20:39;;;;;;;2.55;0.98;;;23.40;87.80;;;;;;6145296;23;20006;-72
2022/08/12 08:23:12;;;;;;;1.08;0.77;;;23.40;87.30;;;;;;6146043;23;20020;-72
2022/08/12 08:25:38;;;;;;;2.60;1.20;;;23.30;87.10;;;;;;6143936;23;20031;-73
2022/08/12 08:28:10;;;;;;;1.02;0.93;;;23.30;88.30;;;;;;6145516;23;20080;-72
2022/08/12 08:30:41;;;;;;;1.55;1.25;;;23.50;87.00;;;;;;6145466;23;20014;-72
2022/08/12 08:33:08;;;;;;;2.15;1.10;;;23.50;86.90;;;;;;6145448;23;20017;-73
2022/08/12 08:35:34;;;;;;;2.35;1.00;;;23.70;85.60;;;;;;6143764;23;20012;-72
2022/08/12 08:38:12;;;;;;;1.40;1.10;;;23.80;86.60;;;;;;6143303;23;20005;-72
2022/08/12 08:43:30;;;;;;;56.15;3.88;;;23.70;86.30;;;;;;6144880;23;20464;-71
2022/08/12 08:45:56;;;;;;;1.77;1.25;;;23.70;86.30;;;;;;6147057;23;21010;-72
2022/08/12 08:48:23;;;;;;;1.15;1.00;;;23.60;86.30;;;;;;6144426;23;20061;-73
2022/08/12 08:50:49;;;;;;;4.03;1.33;;;23.50;86.80;;;;;;6142788;23;20013;-72
2022/08/12 08:53:15;;;;;;;1.08;0.80;;;23.70;88.40;;;;;;6148404;23;20364;-72
2022/08/12 08:55:42;;;;;;;3.10;1.25;;;24.00;87.50;;;;;;6145883;23;20009;-73
2022/08/12 08:58:08;;;;;;;1.20;1.20;;;23.90;85.90;;;;;;6145576;23;20605;-72
2022/08/12 09:00:38;;;;;;;2.47;0.93;;;23.90;86.10;;;;;;6147071;23;20442;-72
2022/08/12 09:03:04;;;;;;;1.75;0.93;;;24.10;86.30;;;;;;6145241;23;20439;-72
2022/08/12 09:05:30;;;;;;;2.20;1.00;;;24.30;84.20;;;;;;6147369;23;20002;-72
2022/08/12 09:07:59;;;;;;;1.35;1.17;;;24.40;83.30;;;;;;6148322;23;20447;-72
2022/08/12 09:10:25;;;;;;;1.25;0.95;;;24.40;83.50;;;;;;6145838;23;20510;-72
2022/08/12 09:15:35;;;;;;;1.25;1.10;;;24.60;83.00;;;;;;6146913;23;20048;-72
2022/08/12 09:18:05;;;;;;;0.98;0.93;;;24.50;83.10;;;;;;6148246;23;20009;-72
2022/08/12 09:20:33;;;;;;;1.00;1.00;;;24.70;83.60;;;;;;6146642;23;20826;-72
2022/08/12 09:23:00;;;;;;;1.38;1.00;;;24.80;82.00;;;;;;6148537;23;20005;-72
2022/08/12 09:25:30;;;;;;;1.10;1.10;;;24.90;83.20;;;;;;6146997;23;20027;-72
2022/08/12 09:27:57;;;;;;;1.77;1.25;;;25.00;82.30;;;;;;6144841;23;20077;-72
2022/08/12 09:30:23;;;;;;;1.33;1.23;;;25.10;81.60;;;;;;6147771;23;20445;-72
2022/08/12 09:32:50;;;;;;;1.10;1.10;;;25.20;81.30;;;;;;6147330;23;20502;-72
2022/08/12 09:35:22;;;;;;;2.35;1.10;;;25.20;80.60;;;;;;6149052;23;20020;-72
2022/08/12 09:37:49;;;;;;;2.47;1.02;;;25.10;81.40;;;;;;6146567;23;20060;-72
2022/08/12 09:40:16;;;;;;;2.47;1.05;;;25.20;80.30;;;;;;6122699;23;20448;-71
2022/08/12 09:45:29;;;;;;;1.25;1.15;;;25.50;82.00;;;;;;6145028;23;20024;-72
2022/08/12 09:47:54;;;;;;;1.60;1.10;;;25.70;81.40;;;;;;6146548;23;20002;-72
2022/08/12 09:50:21;;;;;;;2.47;1.45;;;25.80;79.10;;;;;;6148099;23;20438;-72
2022/08/12 09:53:02;;;;;;;2.35;1.15;;;25.80;78.10;;;;;;6146935;23;20336;-72
2022/08/12 09:55:27;;;;;;;2.42;1.20;;;25.80;78.00;;;;;;6148359;23;20005;-71
2022/08/12 09:57:53;;;;;;;4.93;1.40;;;25.70;79.30;;;;;;6145335;23;20005;-74
2022/08/12 10:00:20;;;;;;;1.67;1.35;;;25.80;78.70;;;;;;6146278;23;20007;-74
2022/08/12 10:03:05;;;;;;;1.48;1.38;;;25.90;79.80;;;;;;6145723;23;19998;-75
2022/08/12 10:05:35;;;;;;;3.08;1.30;;;26.00;76.60;;;;;;6148314;23;20081;-76
2022/08/12 10:08:02;;;;;;;2.03;1.17;;;26.10;75.80;;;;;;6145705;23;20009;-75
2022/08/12 10:10:28;;;;;;;1.15;1.10;;;26.00;78.40;;;;;;6148162;23;20421;-75
2022/08/12 10:15:44;;;;;;;1.13;1.13;;;26.10;79.10;;;;;;6147710;23;20514;-75
2022/08/12 10:18:13;;;;;;;3.10;1.25;;;26.20;76.80;;;;;;6147263;23;20097;-76
2022/08/12 10:20:39;;;;;;;1.35;1.23;;;26.20;77.90;;;;;;6146716;23;20312;-75
2022/08/12 10:23:06;;;;;;;1.85;1.15;;;26.30;75.20;;;;;;6146970;23;19998;-75
2022/08/12 10:31:02;;;;;;;2.20;1.30;;;26.40;75.00;;;;;;6143910;23;20072;-74
2022/08/12 10:33:29;;;;;;;4.40;1.45;;;26.40;73.70;;;;;;6145728;23;20379;-76
2022/08/12 10:35:57;;;;;;;1.30;1.20;;;26.50;75.60;;;;;;6145778;23;20051;-77
2022/08/12 10:38:23;;;;;;;1.40;1.20;;;26.50;74.30;;;;;;6146354;23;20059;-77
2022/08/12 10:43:41;;;;;;;1.60;1.30;;;26.70;75.20;;;;;;6145764;23;20152;-77
2022/08/12 10:46:16;;;;;;;1.38;1.25;;;26.70;75.70;;;;;;6146513;23;20008;-77
2022/08/12 10:48:50;;;;;;;2.85;1.30;;;26.80;74.50;;;;;;6145678;23;20093;-77
2022/08/12 10:51:17;;;;;;;2.50;1.20;;;26.80;73.00;;;;;;6145563;23;20018;-76
2022/08/12 10:53:47;;;;;;;1.75;1.20;;;26.90;72.50;;;;;;6147061;23;19997;-76
2022/08/12 10:56:14;;;;;;;5.70;1.48;;;26.90;69.10;;;;;;6146426;23;20060;-73
2022/08/12 10:58:40;;;;;;;1.48;1.38;;;27.00;70.00;;;;;;6144717;23;20044;-73
2022/08/12 11:01:06;;;;;;;1.30;1.20;;;26.90;69.00;;;;;;6145307;23;20005;-74
2022/08/12 11:03:36;;;;;;;1.00;1.00;;;26.80;69.50;;;;;;6144562;23;20076;-70
2022/08/12 11:06:06;;;;;;;1.65;1.17;;;26.80;71.10;;;;;;6146299;23;20402;-71
2022/08/12 11:08:34;;;;;;;2.55;1.10;;;26.90;71.10;;;;;;6145877;23;20006;-72
2022/08/12 11:11:00;;;;;;;1.20;1.10;;;26.90;70.80;;;;;;6147101;23;20014;-71
2022/08/12 11:13:26;;;;;;;3.03;1.10;;;27.00;73.50;;;;;;6144805;23;20022;-72
2022/08/12 11:15:53;;;;;;;1.35;1.25;;;27.20;72.90;;;;;;6144968;23;20009;-71
2022/08/12 11:18:19;;;;;;;2.03;1.00;;;27.20;68.30;;;;;;6145766;23;20005;-68
2022/08/12 11:20:46;;;;;;;4.90;1.50;;;27.00;66.20;;;;;;6145726;23;20471;-70
2022/08/12 11:23:12;;;;;;;1.33;1.00;;;26.60;66.70;;;;;;6117785;23;20087;-69
2022/08/12 11:25:37;;;;;;;1.65;0.95;;;26.50;68.10;;;;;;6147263;23;20435;-70
2022/08/12 11:28:03;;;;;;;1.20;1.00;;;26.40;67.50;;;;;;6145228;23;20354;-69
2022/08/12 11:30:29;;;;;;;1.83;1.10;;;26.30;68.40;;;;;;6146122;23;20084;-70
2022/08/12 11:32:54;;;;;;;2.47;1.13;;;26.20;65.50;;;;;;6143245;23;20001;-70
2022/08/12 11:35:20;;;;;;;1.95;1.10;;;26.10;67.70;;;;;;6119405;23;20089;-69
2022/08/12 11:37:46;;;;;;;1.20;1.10;;;26.00;70.30;;;;;;6146314;23;20002;-68
2022/08/12 11:40:11;;;;;;;2.40;1.20;;;26.00;66.90;;;;;;6120822;23;20014;-70
2022/08/12 11:42:37;;;;;;;1.77;1.20;;;25.90;67.80;;;;;;6146140;23;20085;-68
2022/08/12 11:45:03;;;;;;;2.28;1.33;;;25.80;68.00;;;;;;6145214;23;20453;-69
2022/08/12 11:47:29;;;;;;;1.30;1.13;;;25.70;69.30;;;;;;6145182;23;20009;-70
2022/08/12 11:49:54;;;;;;;1.98;1.10;;;25.70;70.30;;;;;;6145753;23;20075;-70
2022/08/12 11:52:21;;;;;;;1.10;1.00;;;25.70;70.70;;;;;;6145897;23;20107;-79
2022/08/12 11:54:46;;;;;;;1.08;1.00;;;25.70;71.70;;;;;;6146983;23;20510;-81
2022/08/12 11:57:12;;;;;;;1.92;1.10;;;25.80;70.10;;;;;;6144869;23;20107;-81
2022/08/12 11:59:37;;;;;;;1.88;1.15;;;25.80;71.50;;;;;;6144617;23;20317;-77
2022/08/12 12:02:03;;;;;;;2.15;1.10;;;25.80;72.60;;;;;;6144865;23;19997;-79
2022/08/12 12:04:29;;;;;;;1.13;1.00;;;25.80;72.30;;;;;;6145397;23;20006;-77
2022/08/12 12:06:54;;;;;;;1.75;1.20;;;25.80;71.40;;;;;;6144648;23;20305;-79
2022/08/12 12:09:20;;;;;;;1.33;0.90;;;25.80;71.00;;;;;;6145946;23;20016;-80
2022/08/12 12:11:45;;;;;;;1.77;1.00;;;25.80;70.20;;;;;;6145870;23;20036;-80
2022/08/12 12:14:11;;;;;;;1.10;1.00;;;25.80;71.60;;;;;;6140458;23;20044;-81
2022/08/12 12:16:37;;;;;;;2.15;1.02;;;25.80;70.00;;;;;;6143533;23;20076;-82
2022/08/12 12:19:04;;;;;;;2.72;1.23;;;25.80;69.90;;;;;;6145378;23;20016;-81
2022/08/12 12:21:30;;;;;;;2.45;1.00;;;25.80;74.20;;;;;;6148712;23;20057;-82
2022/08/12 12:23:55;;;;;;;1.38;0.90;;;25.60;70.90;;;;;;6143447;23;20144;-82
2022/08/12 12:26:21;;;;;;;1.58;0.90;;;25.60;71.20;;;;;;6146377;23;20029;-82
2022/08/12 12:28:47;;;;;;;1.70;0.98;;;25.60;71.00;;;;;;6147340;23;20009;-81
2022/08/12 12:31:13;;;;;;;3.90;1.05;;;25.60;70.70;;;;;;6146801;23;20041;-79
2022/08/12 12:33:39;;;;;;;2.05;0.90;;;25.80;72.20;;;;;;6143850;23;20848;-78
2022/08/12 12:36:06;;;;;;;1.90;1.00;;;25.90;72.70;;;;;;6146884;23;20013;-81
2022/08/12 12:38:32;;;;;;;1.52;0.85;;;26.00;69.80;;;;;;6122911;23;20062;-79
2022/08/12 12:40:58;;;;;;;1.13;1.00;;;26.20;69.10;;;;;;6122215;23;20010;-82
2022/08/12 12:43:23;;;;;;;3.13;1.02;;;26.30;68.30;;;;;;6148078;23;20002;-80
2022/08/12 12:45:49;;;;;;;2.30;1.10;;;26.40;68.70;;;;;;6148381;23;20367;-79
2022/08/12 12:48:17;;;;;;;0.93;0.80;;;26.50;66.80;;;;;;6149044;23;20060;-80
2022/08/12 12:50:45;;;;;;;1.52;0.90;;;26.60;67.00;;;;;;6146688;23;20018;-76
2022/08/12 12:53:17;;;;;;;1.10;1.10;;;26.70;67.10;;;;;;6146416;23;20010;-77
2022/08/12 12:55:45;;;;;;;1.58;1.17;;;26.90;66.90;;;;;;6120455;23;20012;-80
2022/08/12 12:58:15;;;;;;;1.67;0.80;;;27.00;68.20;;;;;;6147742;23;20002;-78
2022/08/12 13:00:43;;;;;;;3.05;0.82;;;27.10;66.50;;;;;;6148051;23;20084;-82
2022/08/12 13:03:11;;;;;;;1.40;1.27;;;27.20;67.40;;;;;;6147453;23;20008;-81
2022/08/12 13:05:38;;;;;;;1.00;0.90;;;27.20;64.40;;;;;;6147865;23;20065;-80
2022/08/12 13:08:29;;;;;;;3.05;0.73;;;27.20;65.20;;;;;;6120602;23;20017;-79
2022/08/12 13:11:03;;;;;;;1.27;0.90;;;27.10;65.10;;;;;;6146959;23;20041;-79
2022/08/12 13:13:35;;;;;;;0.77;0.77;;;27.10;66.30;;;;;;6141529;23;20028;-80
2022/08/12 13:16:02;;;;;;;7.22;1.20;;;27.20;67.10;;;;;;6141353;23;20016;-75
2022/08/12 13:18:35;;;;;;;2.38;0.90;;;27.30;66.60;;;;;;6143511;23;20399;-76
2022/08/12 13:21:04;;;;;;;2.20;1.20;;;27.30;66.30;;;;;;6145936;23;20080;-75
2022/08/12 13:23:30;;;;;;;2.67;0.90;;;27.20;64.40;;;;;;6145369;23;20009;-76
2022/08/12 13:25:56;;;;;;;1.52;0.90;;;27.20;65.60;;;;;;6143754;23;20001;-76
2022/08/12 13:28:28;;;;;;;1.90;0.70;;;27.20;66.30;;;;;;6142845;23;20005;-80
2022/08/12 13:30:56;;;;;;;7.15;1.40;;;27.20;66.10;;;;;;6145295;23;20040;-73
2022/08/12 13:33:24;;;;;;;1.50;0.98;;;27.20;69.00;;;;;;6143420;23;20005;-72
2022/08/12 13:35:57;;;;;;;1.45;0.98;;;27.30;67.80;;;;;;6147132;23;20334;-73
2022/08/12 13:38:37;;;;;;;2.70;1.20;;;27.20;69.30;;;;;;6119294;23;20010;-73
2022/08/12 13:41:04;;;;;;;1.50;1.40;;;27.20;69.00;;;;;;6147106;23;20845;-72
2022/08/12 13:43:31;;;;;;;1.20;1.10;;;27.10;68.60;;;;;;6143227;23;20080;-72
2022/08/12 13:45:58;;;;;;;1.17;1.05;;;27.10;68.30;;;;;;6148368;23;20104;-73
2022/08/12 13:48:24;;;;;;;1.13;0.82;;;27.00;68.20;;;;;;6145452;23;20011;-72
2022/08/12 13:50:49;;;;;;;1.27;1.17;;;27.00;67.60;;;;;;6146270;23;20106;-73
2022/08/12 13:53:17;;;;;;;6.18;1.88;;;27.10;68.40;;;;;;6145421;23;20033;-73
2022/08/12 13:55:46;;;;;;;1.48;1.05;;;27.10;66.80;;;;;;6147814;23;20006;-72
2022/08/12 13:58:15;;;;;;;1.27;1.05;;;27.00;68.80;;;;;;6137908;23;20005;-73
2022/08/12 14:00:46;;;;;;;2.05;0.70;;;26.90;71.20;;;;;;6142514;23;20020;-72
2022/08/12 14:03:15;;;;;;;2.65;0.90;;;26.90;68.60;;;;;;6144591;23;20006;-70
2022/08/12 14:05:41;;;;;;;0.80;0.80;;;26.80;69.10;;;;;;6142406;23;20043;-70
2022/08/12 14:08:15;;;;;;;2.22;1.02;;;26.90;67.70;;;;;;6138417;23;20002;-70
2022/08/12 14:10:50;;;;;;;1.13;0.80;;;27.00;70.10;;;;;;6143808;23;20017;-71
2022/08/12 14:13:19;;;;;;;0.93;0.82;;;27.10;67.50;;;;;;6142207;23;20028;-71
2022/08/12 14:15:46;;;;;;;1.10;1.00;;;27.00;65.90;;;;;;6145995;23;20462;-72
2022/08/12 14:18:25;;;;;;;1.02;1.00;;;27.00;68.00;;;;;;6141187;23;20005;-72
2022/08/12 14:21:00;;;;;;;0.73;0.73;;;27.00;69.00;;;;;;6145568;23;20015;-72
2022/08/12 14:23:32;;;;;;;1.80;1.52;;;27.10;67.80;;;;;;6145150;23;20468;-72
2022/08/12 14:25:59;;;;;;;4.53;1.15;;;27.00;68.50;;;;;;6144221;23;20065;-72
2022/08/12 14:28:26;;;;;;;1.10;0.88;;;26.90;67.80;;;;;;6143437;23;20095;-75
2022/08/12 14:30:59;;;;;;;6.22;1.02;;;27.00;66.80;;;;;;6142716;23;20080;-75
2022/08/12 14:33:32;;;;;;;2.53;1.20;;;27.00;68.70;;;;;;6142701;23;20084;-77
2022/08/12 14:35:59;;;;;;;1.17;1.08;;;27.00;69.80;;;;;;6142510;23;20312;-76
2022/08/12 14:38:28;;;;;;;2.33;1.00;;;27.00;68.10;;;;;;6143032;23;20001;-76
2022/08/12 14:41:02;;;;;;;0.70;0.68;;;26.90;69.30;;;;;;6143993;23;20010;-76